createdAt,value
2019-04-06T00:04:43.334Z,6.90
2019-04-06T00:09:50.140Z,6.60
2019-04-06T00:14:55.332Z,6.30
2019-04-06T00:20:00.380Z,6.20
2019-04-06T00:25:05.696Z,6.00
2019-04-06T00:30:12.827Z,5.90
2019-04-06T00:35:18.004Z,5.80
2019-04-06T00:40:23.007Z,5.70
2019-04-06T00:45:28.080Z,5.70
2019-04-06T00:50:33.117Z,5.90
2019-04-06T00:55:38.433Z,6.00
2019-04-06T01:00:43.855Z,5.90
2019-04-06T01:05:48.901Z,5.80
2019-04-06T01:10:53.928Z,5.70
2019-04-06T01:15:58.957Z,5.70
2019-04-06T01:21:04.370Z,5.80
2019-04-06T01:26:10.568Z,5.80
2019-04-06T01:31:15.948Z,5.90
2019-04-06T01:36:20.980Z,6.00
2019-04-06T01:41:26.037Z,6.10
2019-04-06T01:46:31.060Z,6.20
2019-04-06T01:51:36.104Z,6.20
2019-04-06T01:56:41.446Z,6.20
2019-04-06T02:01:59.349Z,6.30
2019-04-06T02:07:04.796Z,6.30
2019-04-06T02:12:09.864Z,6.30
2019-04-06T02:17:14.924Z,6.40
2019-04-06T02:22:21.715Z,6.40
2019-04-06T02:27:26.872Z,6.50
2019-04-06T02:32:41.015Z,6.50
2019-04-06T02:38:14.361Z,6.50
2019-04-06T02:43:22.073Z,6.50
2019-04-06T02:48:28.955Z,6.50
2019-04-06T02:53:34.051Z,6.60
2019-04-06T02:58:39.558Z,6.60
2019-04-06T03:03:44.992Z,6.60
2019-04-06T03:08:50.156Z,6.60
2019-04-06T03:13:57.002Z,6.60
2019-04-06T03:19:02.035Z,6.70
2019-04-06T03:24:07.086Z,6.80
2019-04-06T03:29:12.196Z,6.80
2019-04-06T03:34:21.182Z,6.80
2019-04-06T03:39:23.856Z,6.80
2019-04-06T03:44:28.891Z,6.80
2019-04-06T03:49:34.057Z,6.80
2019-04-06T03:54:39.061Z,6.80
2019-04-06T03:59:44.123Z,6.90
2019-04-06T04:04:49.177Z,6.90
2019-04-06T04:09:54.211Z,6.90
2019-04-06T04:14:59.293Z,7.00
2019-04-06T04:20:04.725Z,7.00
2019-04-06T04:25:09.799Z,7.00
2019-04-06T04:30:15.708Z,7.00
2019-04-06T04:35:21.634Z,7.00
2019-04-06T04:40:26.709Z,7.10
2019-04-06T04:45:32.728Z,7.10
2019-04-06T04:50:37.787Z,7.10
2019-04-06T04:55:44.595Z,7.10
2019-04-06T05:00:49.748Z,7.10
2019-04-06T05:05:55.246Z,7.20
2019-04-06T05:11:02.047Z,7.20
2019-04-06T05:16:11.312Z,7.20
2019-04-06T05:21:16.444Z,7.30
2019-04-06T05:26:21.523Z,7.30
2019-04-06T05:31:26.552Z,7.30
2019-04-06T05:36:32.939Z,7.40
2019-04-06T05:41:37.996Z,7.40
2019-04-06T05:46:43.116Z,7.40
2019-04-06T05:51:48.105Z,7.40
2019-04-06T05:56:53.308Z,7.50
2019-04-06T06:01:58.337Z,7.50
2019-04-06T06:07:03.469Z,7.50
2019-04-06T06:12:13.351Z,7.50
2019-04-06T06:17:20.310Z,7.50
2019-04-06T06:22:25.513Z,7.60
2019-04-06T06:27:30.741Z,7.60
2019-04-06T06:32:35.954Z,7.70
2019-04-06T06:37:41.095Z,7.70
2019-04-06T06:42:46.342Z,7.80
2019-04-06T06:47:51.432Z,7.80
2019-04-06T06:52:56.699Z,7.90
2019-04-06T06:58:02.089Z,7.90
2019-04-06T07:03:07.124Z,8.00
2019-04-06T07:08:12.157Z,8.00
2019-04-06T07:13:17.385Z,8.20
2019-04-06T07:18:22.565Z,8.20
2019-04-06T07:23:28.884Z,8.30
2019-04-06T07:28:38.623Z,8.50
2019-04-06T07:33:40.658Z,8.80
2019-04-06T07:38:45.710Z,9.00
2019-04-06T07:43:52.160Z,9.20
2019-04-06T07:49:07.829Z,9.30
2019-04-06T07:54:04.226Z,9.30
2019-04-06T07:59:09.519Z,9.50
2019-04-06T08:04:14.830Z,9.70
2019-04-06T08:09:20.213Z,10.00
2019-04-06T08:14:25.370Z,10.00
2019-04-06T08:19:30.750Z,10.10
2019-04-06T08:24:35.998Z,10.20
2019-04-06T08:29:41.218Z,10.50
2019-04-06T08:34:47.838Z,10.60
2019-04-06T08:39:52.911Z,10.70
2019-04-06T08:44:57.943Z,10.80
2019-04-06T08:50:03.037Z,10.90
2019-04-06T08:55:08.396Z,11.00
2019-04-06T09:00:14.328Z,11.20
2019-04-06T09:05:19.380Z,11.30
2019-04-06T09:10:24.399Z,11.50
2019-04-06T09:15:29.433Z,11.70
2019-04-06T09:20:34.480Z,12.00
2019-04-06T09:25:39.531Z,12.30
2019-04-06T09:30:44.652Z,12.30
2019-04-06T09:35:49.688Z,12.50
2019-04-06T09:40:55.999Z,12.70
2019-04-06T09:46:25.027Z,12.70
2019-04-06T09:51:50.421Z,12.90
2019-04-06T09:57:17.311Z,13.20
2019-04-06T10:02:48.504Z,13.20
2019-04-06T10:08:11.312Z,13.50
2019-04-06T10:13:50.520Z,13.60
2019-04-06T10:19:20.325Z,13.80
2019-04-06T10:24:53.334Z,14.10
2019-04-06T10:30:23.226Z,14.30
2019-04-06T10:35:45.019Z,14.50
2019-04-06T10:41:09.217Z,15.00
2019-04-06T10:46:45.536Z,15.30
2019-04-06T10:52:07.483Z,15.50
2019-04-06T10:57:30.318Z,15.90
2019-04-06T11:03:03.439Z,15.90
2019-04-06T11:08:33.778Z,16.20
2019-04-06T11:13:54.196Z,16.50
2019-04-06T11:19:18.194Z,16.70
2019-04-06T11:24:44.357Z,16.60
2019-04-06T11:30:13.645Z,16.60
2019-04-06T11:35:30.400Z,16.30
2019-04-06T11:40:53.196Z,16.30
2019-04-06T11:46:07.237Z,16.50
2019-04-06T11:51:29.584Z,16.70
2019-04-06T11:56:59.672Z,16.60
2019-04-06T12:02:24.656Z,16.60
2019-04-06T12:07:47.262Z,16.80
2019-04-06T12:13:01.584Z,17.00
2019-04-06T12:18:31.939Z,17.10
2019-04-06T12:23:54.480Z,17.20
2019-04-06T12:29:18.592Z,17.40
2019-04-06T12:34:41.835Z,17.40
2019-04-06T12:40:06.113Z,17.40
2019-04-06T12:45:30.384Z,17.50
2019-04-06T12:51:12.461Z,17.60
2019-04-06T12:56:48.799Z,17.60
2019-04-06T13:02:24.879Z,17.60
2019-04-06T13:08:07.081Z,17.80
2019-04-06T13:13:21.087Z,18.50
2019-04-06T13:18:35.026Z,20.40
2019-04-06T13:24:02.123Z,22.50
2019-04-06T13:29:18.420Z,23.60
2019-04-06T13:34:45.490Z,23.60
2019-04-06T13:40:15.729Z,24.40
2019-04-06T13:45:37.949Z,24.50
2019-04-06T13:50:54.746Z,24.90
2019-04-06T13:56:09.008Z,25.40
2019-04-06T14:01:44.968Z,25.40
2019-04-06T14:07:15.030Z,25.60
2019-04-06T14:12:31.448Z,25.90
2019-04-06T14:17:55.959Z,25.40
2019-04-06T14:23:29.042Z,25.60
2019-04-06T14:28:55.851Z,25.50
2019-04-06T14:34:25.718Z,26.00
2019-04-06T14:39:52.873Z,26.20
2019-04-06T14:45:15.174Z,26.40
2019-04-06T14:50:58.303Z,26.60
2019-04-06T14:56:22.665Z,26.40
2019-04-06T15:01:57.858Z,27.00
2019-04-06T15:07:11.623Z,27.60
2019-04-06T15:12:32.112Z,27.20
2019-04-06T15:17:55.465Z,27.90
2019-04-06T15:23:19.774Z,28.20
2019-04-06T15:28:40.730Z,27.00
2019-04-06T15:34:05.290Z,27.10
2019-04-06T15:39:33.186Z,27.20
2019-04-06T15:44:55.918Z,27.20
2019-04-06T15:50:17.139Z,27.30
2019-04-06T15:55:41.665Z,27.70
2019-04-06T16:01:01.409Z,27.50
2019-04-06T16:06:25.483Z,26.90
2019-04-06T16:11:49.511Z,26.10
2019-04-06T16:17:19.548Z,25.80
2019-04-06T16:22:44.874Z,25.30
2019-04-06T16:27:57.912Z,24.60
2019-04-06T16:33:18.919Z,24.30
2019-04-06T16:38:49.203Z,24.20
2019-04-06T16:44:02.829Z,22.90
2019-04-06T16:49:29.998Z,22.60
2019-04-06T16:54:51.821Z,22.70
2019-04-06T17:00:19.850Z,22.60
2019-04-06T17:05:39.556Z,21.60
2019-04-06T17:11:03.014Z,20.70
2019-04-06T17:16:28.439Z,19.90
2019-04-06T17:22:01.451Z,19.20
2019-04-06T17:27:31.595Z,18.50
2019-04-06T17:32:54.474Z,17.90
2019-04-06T17:38:17.297Z,17.40
2019-04-06T17:43:43.916Z,16.90
2019-04-06T17:49:11.378Z,16.50
2019-04-06T17:54:35.785Z,16.20
2019-04-06T18:00:08.818Z,15.80
2019-04-06T18:05:31.818Z,15.50
2019-04-06T18:10:54.945Z,15.20
2019-04-06T18:16:00.170Z,14.90
2019-04-06T18:21:06.383Z,14.50
2019-04-06T18:26:11.434Z,14.20
2019-04-06T18:31:26.014Z,14.00
2019-04-06T18:36:53.365Z,13.70
2019-04-06T18:41:58.721Z,13.50
2019-04-06T18:47:04.854Z,13.20
2019-04-06T18:52:09.987Z,12.90
2019-04-06T18:57:15.413Z,12.80
2019-04-06T19:02:21.343Z,12.60
2019-04-06T19:07:26.866Z,12.40
2019-04-06T19:12:32.558Z,12.20
2019-04-06T19:17:37.737Z,12.00
2019-04-06T19:22:43.225Z,11.90
2019-04-06T19:27:48.700Z,11.80
2019-04-06T19:32:54.097Z,11.70
2019-04-06T19:37:59.573Z,11.60
2019-04-06T19:43:05.473Z,11.70
2019-04-06T19:48:10.970Z,11.80
2019-04-06T19:53:16.584Z,11.80
2019-04-06T19:58:24.230Z,11.80
2019-04-06T20:03:34.621Z,11.90
2019-04-06T20:08:35.339Z,12.00
2019-04-06T20:13:40.466Z,12.10
2019-04-06T20:18:45.510Z,12.10
2019-04-06T20:23:50.659Z,12.10
2019-04-06T20:28:55.977Z,12.30
2019-04-06T20:34:01.182Z,12.30
2019-04-06T20:39:08.702Z,12.30
2019-04-06T20:44:14.321Z,12.20
2019-04-06T20:49:19.830Z,12.10
2019-04-06T20:54:25.125Z,12.10
2019-04-06T20:59:30.481Z,12.00
2019-04-06T21:04:35.821Z,11.90
2019-04-06T21:09:41.535Z,11.90
2019-04-06T21:14:47.259Z,11.80
2019-04-06T21:19:52.314Z,11.90
2019-04-06T21:24:58.226Z,11.90
2019-04-06T21:30:03.444Z,11.80
2019-04-06T21:35:10.649Z,11.70
2019-04-06T21:40:16.111Z,11.60
2019-04-06T21:45:21.635Z,11.50
2019-04-06T21:50:27.468Z,11.60
2019-04-06T21:55:32.900Z,11.50
2019-04-06T22:00:50.025Z,11.70
2019-04-06T22:05:55.821Z,11.70
2019-04-06T22:11:01.736Z,11.70
2019-04-06T22:16:07.462Z,11.70
2019-04-06T22:21:13.889Z,11.80
2019-04-06T22:26:19.345Z,11.90
2019-04-06T22:31:24.663Z,11.90
2019-04-06T22:36:29.821Z,11.90
2019-04-06T22:41:35.403Z,11.80
2019-04-06T22:46:40.854Z,11.60
2019-04-06T22:51:46.134Z,11.50
2019-04-06T22:56:51.264Z,11.40
2019-04-06T23:01:56.856Z,11.40
2019-04-06T23:07:11.157Z,11.30
2019-04-06T23:12:16.769Z,11.20
2019-04-06T23:17:22.522Z,11.20
2019-04-06T23:22:27.823Z,11.10
2019-04-06T23:27:33.059Z,11.10
2019-04-06T23:32:38.238Z,11.10
2019-04-06T23:37:44.917Z,11.00
2019-04-06T23:42:49.958Z,11.00
2019-04-06T23:47:55.769Z,10.90
2019-04-06T23:53:01.419Z,10.90
2019-04-06T23:58:07.346Z,10.70
